createdAt,value
2017-05-31T00:00:16.520Z,13.57
2017-05-31T00:01:17.137Z,13.65
2017-05-31T00:02:17.757Z,13.54
2017-05-31T00:03:18.368Z,13.57
2017-05-31T00:04:18.983Z,13.44
2017-05-31T00:05:19.687Z,13.57
2017-05-31T00:06:20.303Z,13.54
2017-05-31T00:07:20.920Z,13.49
2017-05-31T00:08:21.531Z,13.49
2017-05-31T00:09:22.147Z,13.54
2017-05-31T00:10:22.792Z,13.53
2017-05-31T00:11:23.414Z,13.56
2017-05-31T00:12:24.026Z,13.56
2017-05-31T00:13:24.640Z,13.52
2017-05-31T00:14:25.255Z,13.42
2017-05-31T00:15:25.953Z,13.35
2017-05-31T00:16:26.570Z,13.38
2017-05-31T00:17:27.219Z,13.35
2017-05-31T00:18:27.831Z,13.37
2017-05-31T00:19:28.447Z,13.33
2017-05-31T00:20:29.113Z,13.39
2017-05-31T00:21:29.732Z,13.30
2017-05-31T00:22:30.345Z,13.30
2017-05-31T00:23:30.960Z,13.28
2017-05-31T00:24:31.576Z,13.31
2017-05-31T00:25:32.238Z,13.22
2017-05-31T00:26:32.855Z,13.31
2017-05-31T00:27:33.470Z,13.30
2017-05-31T00:28:34.090Z,13.20
2017-05-31T00:29:34.704Z,13.22
2017-05-31T00:30:35.355Z,13.22
2017-05-31T00:31:35.967Z,13.15
2017-05-31T00:32:36.582Z,13.12
2017-05-31T00:33:37.195Z,13.12
2017-05-31T00:34:37.810Z,13.31
2017-05-31T00:35:38.463Z,13.19
2017-05-31T00:36:39.082Z,13.05
2017-05-31T00:37:39.700Z,13.12
2017-05-31T00:38:40.319Z,13.08
2017-05-31T00:39:40.929Z,13.05
2017-05-31T00:40:41.545Z,13.08
2017-05-31T00:41:42.192Z,13.03
2017-05-31T00:42:42.840Z,13.00
2017-05-31T00:43:43.455Z,13.01
2017-05-31T00:44:44.069Z,13.23
2017-05-31T00:45:44.735Z,13.18
2017-05-31T00:46:45.349Z,13.16
2017-05-31T00:47:45.967Z,13.18
2017-05-31T00:48:46.579Z,13.13
2017-05-31T00:49:47.197Z,13.15
2017-05-31T00:50:47.819Z,13.23
2017-05-31T00:51:48.436Z,13.22
2017-05-31T00:52:49.086Z,13.19
2017-05-31T00:53:49.705Z,13.23
2017-05-31T00:54:50.317Z,13.20
2017-05-31T00:55:51.013Z,13.23
2017-05-31T00:56:51.635Z,13.22
2017-05-31T00:57:52.248Z,13.25
2017-05-31T00:58:52.864Z,13.19
2017-05-31T00:59:53.478Z,13.28
2017-05-31T01:00:54.093Z,13.19
2017-05-31T01:01:54.733Z,13.15
2017-05-31T01:02:55.325Z,13.15
2017-05-31T01:03:55.940Z,13.15
2017-05-31T01:04:56.554Z,13.20
2017-05-31T01:05:57.219Z,13.15
2017-05-31T01:06:57.840Z,13.15
2017-05-31T01:07:58.451Z,13.11
2017-05-31T01:08:59.073Z,13.09
2017-05-31T01:09:59.690Z,13.16
2017-05-31T01:11:00.301Z,13.11
2017-05-31T01:12:00.916Z,13.12
2017-05-31T01:13:01.555Z,13.20
2017-05-31T01:14:02.157Z,13.19
2017-05-31T01:15:02.768Z,13.18
2017-05-31T01:16:03.383Z,13.25
2017-05-31T01:17:03.998Z,13.20
2017-05-31T01:18:04.613Z,13.30
2017-05-31T01:19:05.227Z,13.19
2017-05-31T01:20:05.842Z,13.19
2017-05-31T01:21:06.506Z,13.18
2017-05-31T01:22:07.122Z,13.20
2017-05-31T01:23:07.737Z,13.19
2017-05-31T01:24:08.351Z,13.11
2017-05-31T01:25:08.973Z,13.15
2017-05-31T01:26:09.635Z,13.16
2017-05-31T01:27:10.250Z,13.16
2017-05-31T01:28:10.872Z,13.09
2017-05-31T01:29:11.484Z,13.15
2017-05-31T01:30:12.099Z,13.20
2017-05-31T01:31:12.714Z,13.15
2017-05-31T01:32:13.328Z,13.28
2017-05-31T01:33:13.943Z,13.11
2017-05-31T01:34:14.561Z,13.13
2017-05-31T01:35:15.175Z,13.13
2017-05-31T01:36:15.792Z,13.15
2017-05-31T01:37:16.406Z,13.15
2017-05-31T01:38:17.021Z,13.15
2017-05-31T01:39:17.634Z,13.18
2017-05-31T01:40:18.252Z,13.12
2017-05-31T01:41:18.922Z,13.22
2017-05-31T01:42:19.535Z,13.13
2017-05-31T01:43:20.184Z,13.22
2017-05-31T01:44:20.800Z,13.19
2017-05-31T01:45:21.415Z,13.19
2017-05-31T01:46:22.080Z,13.27
2017-05-31T01:47:22.701Z,13.22
2017-05-31T01:48:23.313Z,13.25
2017-05-31T01:49:23.932Z,13.13
2017-05-31T01:50:24.546Z,13.16
2017-05-31T01:51:25.163Z,13.16
2017-05-31T01:52:25.783Z,13.16
2017-05-31T01:53:26.394Z,13.16
2017-05-31T01:54:27.014Z,13.23
2017-05-31T01:55:27.631Z,13.22
2017-05-31T01:56:28.241Z,13.15
2017-05-31T01:57:28.857Z,13.12
2017-05-31T01:58:29.471Z,13.20
2017-05-31T01:59:30.094Z,13.20
2017-05-31T02:00:30.706Z,13.19
2017-05-31T02:01:31.355Z,13.13
2017-05-31T02:02:31.971Z,13.18
2017-05-31T02:03:32.590Z,13.27
2017-05-31T02:04:33.202Z,13.20
2017-05-31T02:05:33.817Z,13.31
2017-05-31T02:06:34.430Z,13.23
2017-05-31T02:07:35.045Z,13.25
2017-05-31T02:08:35.659Z,13.25
2017-05-31T02:09:36.285Z,13.28
2017-05-31T02:10:36.894Z,13.25
2017-05-31T02:11:37.509Z,13.31
2017-05-31T02:12:38.128Z,13.33
2017-05-31T02:13:38.740Z,13.35
2017-05-31T02:14:39.354Z,13.38
2017-05-31T02:15:39.967Z,13.35
2017-05-31T02:16:40.632Z,13.38
2017-05-31T02:17:41.280Z,13.31
2017-05-31T02:18:41.895Z,13.27
2017-05-31T02:19:42.511Z,13.25
2017-05-31T02:20:43.128Z,13.31
2017-05-31T02:21:43.743Z,13.22
2017-05-31T02:22:44.356Z,13.22
2017-05-31T02:23:44.970Z,13.20
2017-05-31T02:24:45.587Z,13.23
2017-05-31T02:25:46.200Z,13.18
2017-05-31T02:26:46.864Z,13.16
2017-05-31T02:27:47.487Z,13.19
2017-05-31T02:28:48.101Z,13.11
2017-05-31T02:29:48.721Z,13.16
2017-05-31T02:30:49.333Z,13.16
2017-05-31T02:31:49.998Z,13.18
2017-05-31T02:32:50.645Z,13.00
2017-05-31T02:33:51.291Z,13.08
2017-05-31T02:34:51.906Z,13.22
2017-05-31T02:35:52.522Z,13.22
2017-05-31T02:36:53.186Z,13.16
2017-05-31T02:37:53.839Z,13.11
2017-05-31T02:38:54.453Z,13.18
2017-05-31T02:39:55.100Z,13.03
2017-05-31T02:40:55.749Z,13.15
2017-05-31T02:41:56.413Z,13.16
2017-05-31T02:42:57.034Z,13.15
2017-05-31T02:43:57.651Z,13.01
2017-05-31T02:44:58.304Z,13.04
2017-05-31T02:45:58.916Z,13.13
2017-05-31T02:46:59.581Z,13.11
2017-05-31T02:48:00.194Z,13.13
2017-05-31T02:49:00.817Z,13.05
2017-05-31T02:50:01.437Z,13.15
2017-05-31T02:51:02.049Z,13.15
2017-05-31T02:52:02.714Z,13.09
2017-05-31T02:53:03.334Z,13.16
2017-05-31T02:54:03.944Z,13.05
2017-05-31T02:55:04.564Z,13.08
2017-05-31T02:56:05.178Z,13.11
2017-05-31T02:57:05.794Z,13.12
2017-05-31T02:58:06.408Z,13.09
2017-05-31T02:59:07.028Z,13.13
2017-05-31T03:00:07.640Z,13.01
2017-05-31T03:01:08.253Z,13.00
2017-05-31T03:02:08.951Z,12.90
2017-05-31T03:03:09.565Z,12.87
2017-05-31T03:04:10.217Z,12.86
2017-05-31T03:05:10.835Z,12.70
2017-05-31T03:06:11.447Z,12.78
2017-05-31T03:07:12.063Z,12.73
2017-05-31T03:08:12.678Z,12.67
2017-05-31T03:09:13.293Z,12.68
2017-05-31T03:10:13.912Z,12.68
2017-05-31T03:11:14.524Z,12.70
2017-05-31T03:12:15.139Z,12.72
2017-05-31T03:13:15.758Z,12.72
2017-05-31T03:14:16.374Z,12.57
2017-05-31T03:15:16.986Z,12.65
2017-05-31T03:16:17.607Z,12.57
2017-05-31T03:17:18.219Z,12.50
2017-05-31T03:18:18.833Z,12.58
2017-05-31T03:19:19.446Z,12.61
2017-05-31T03:20:20.061Z,12.72
2017-05-31T03:21:20.707Z,12.60
2017-05-31T03:22:21.372Z,12.57
2017-05-31T03:23:21.986Z,12.55
2017-05-31T03:24:22.602Z,12.62
2017-05-31T03:25:23.216Z,12.64
2017-05-31T03:26:23.831Z,12.54
2017-05-31T03:27:24.497Z,12.54
2017-05-31T03:28:25.116Z,12.57
2017-05-31T03:29:25.728Z,12.57
2017-05-31T03:30:26.349Z,12.58
2017-05-31T03:31:26.961Z,12.50
2017-05-31T03:32:27.582Z,12.55
2017-05-31T03:33:28.192Z,12.47
2017-05-31T03:34:28.807Z,12.47
2017-05-31T03:35:29.458Z,12.49
2017-05-31T03:36:30.069Z,12.45
2017-05-31T03:37:30.734Z,12.47
2017-05-31T03:38:31.381Z,12.42
2017-05-31T03:39:31.997Z,12.45
2017-05-31T03:40:32.608Z,12.37
2017-05-31T03:41:33.223Z,12.43
2017-05-31T03:42:33.839Z,12.39
2017-05-31T03:43:34.456Z,12.42
2017-05-31T03:44:35.072Z,12.37
2017-05-31T03:45:35.689Z,12.43
2017-05-31T03:46:36.337Z,12.40
2017-05-31T03:47:36.999Z,12.40
2017-05-31T03:48:37.617Z,12.36
2017-05-31T03:49:38.232Z,12.42
2017-05-31T03:50:38.849Z,12.43
2017-05-31T03:51:39.463Z,12.46
2017-05-31T03:52:40.079Z,12.43
2017-05-31T03:53:40.731Z,12.45
2017-05-31T03:54:41.343Z,12.39
2017-05-31T03:55:41.963Z,12.47
2017-05-31T03:56:42.573Z,12.43
2017-05-31T03:57:43.244Z,12.47
2017-05-31T03:58:43.856Z,12.46
2017-05-31T03:59:44.472Z,12.47
2017-05-31T04:00:45.088Z,12.45
2017-05-31T04:01:45.702Z,12.53
2017-05-31T04:02:46.373Z,12.55
2017-05-31T04:03:47.019Z,12.50
2017-05-31T04:04:47.634Z,12.60
2017-05-31T04:05:48.246Z,12.62
2017-05-31T04:06:48.862Z,12.61
2017-05-31T04:07:49.478Z,12.58
2017-05-31T04:08:50.101Z,12.67
2017-05-31T04:09:50.712Z,12.61
2017-05-31T04:10:51.326Z,12.61
2017-05-31T04:11:51.942Z,12.70
2017-05-31T04:12:52.558Z,12.72
2017-05-31T04:13:53.173Z,12.76
2017-05-31T04:14:53.789Z,12.70
2017-05-31T04:15:54.406Z,12.72
2017-05-31T04:16:55.025Z,12.78
2017-05-31T04:17:55.687Z,12.72
2017-05-31T04:18:56.304Z,12.68
2017-05-31T04:19:56.919Z,12.72
2017-05-31T04:20:57.536Z,12.72
2017-05-31T04:21:58.159Z,12.67
2017-05-31T04:22:58.771Z,12.83
2017-05-31T04:23:59.387Z,12.80
2017-05-31T04:25:00.009Z,12.80
2017-05-31T04:26:00.621Z,12.82
2017-05-31T04:27:01.236Z,12.83
2017-05-31T04:28:01.854Z,12.76
2017-05-31T04:29:02.470Z,12.80
2017-05-31T04:30:03.091Z,12.80
2017-05-31T04:31:03.704Z,12.85
2017-05-31T04:32:04.320Z,12.67
2017-05-31T04:33:04.967Z,12.67
2017-05-31T04:34:05.587Z,12.57
2017-05-31T04:35:06.200Z,12.50
2017-05-31T04:36:06.823Z,12.62
2017-05-31T04:37:07.472Z,12.58
2017-05-31T04:38:08.145Z,12.65
2017-05-31T04:39:08.795Z,12.67
2017-05-31T04:40:09.409Z,12.50
2017-05-31T04:41:10.024Z,12.60
2017-05-31T04:42:10.646Z,12.61
2017-05-31T04:43:11.293Z,12.70
2017-05-31T04:44:11.907Z,12.72
2017-05-31T04:45:12.524Z,12.73
2017-05-31T04:46:13.146Z,12.70
2017-05-31T04:47:13.764Z,12.78
2017-05-31T04:48:14.377Z,12.80
2017-05-31T04:49:14.997Z,12.86
2017-05-31T04:50:15.610Z,12.70
2017-05-31T04:51:16.231Z,12.83
2017-05-31T04:52:16.846Z,12.70
2017-05-31T04:53:17.460Z,12.78
2017-05-31T04:54:18.076Z,12.80
2017-05-31T04:55:18.698Z,12.82
2017-05-31T04:56:19.308Z,12.83
2017-05-31T04:57:19.924Z,12.83
2017-05-31T04:58:20.597Z,12.93
2017-05-31T04:59:21.208Z,12.86
2017-05-31T05:00:21.851Z,12.85
2017-05-31T05:01:22.445Z,12.82
2017-05-31T05:02:23.065Z,12.93
2017-05-31T05:03:23.679Z,12.91
2017-05-31T05:04:24.308Z,12.94
2017-05-31T05:05:24.911Z,12.91
2017-05-31T05:06:25.566Z,13.00
2017-05-31T05:07:26.177Z,12.87
2017-05-31T05:08:26.844Z,12.93
2017-05-31T05:09:27.460Z,12.91
2017-05-31T05:10:28.074Z,12.94
2017-05-31T05:11:28.691Z,12.90
2017-05-31T05:12:29.306Z,12.95
2017-05-31T05:13:29.971Z,13.01
2017-05-31T05:14:30.586Z,13.04
2017-05-31T05:15:31.201Z,12.98
2017-05-31T05:16:31.816Z,13.03
2017-05-31T05:17:32.433Z,13.00
2017-05-31T05:18:33.050Z,13.01
2017-05-31T05:19:33.666Z,13.05
2017-05-31T05:20:34.287Z,13.01
2017-05-31T05:21:34.906Z,13.01
2017-05-31T05:22:35.518Z,13.03
2017-05-31T05:23:36.133Z,13.08
2017-05-31T05:24:36.751Z,13.11
2017-05-31T05:25:37.373Z,13.05
2017-05-31T05:26:37.985Z,13.09
2017-05-31T05:27:38.601Z,13.03
2017-05-31T05:28:39.266Z,13.03
2017-05-31T05:29:39.886Z,13.00
2017-05-31T05:30:40.500Z,13.01
2017-05-31T05:31:41.116Z,13.03
2017-05-31T05:32:41.731Z,13.01
2017-05-31T05:33:42.354Z,13.01
2017-05-31T05:34:42.966Z,13.09
2017-05-31T05:35:43.581Z,13.12
2017-05-31T05:36:44.199Z,12.97
2017-05-31T05:37:44.841Z,13.12
2017-05-31T05:38:45.437Z,13.05
2017-05-31T05:39:46.055Z,13.00
2017-05-31T05:40:46.671Z,13.08
2017-05-31T05:41:47.288Z,13.12
2017-05-31T05:42:47.913Z,13.16
2017-05-31T05:43:48.529Z,13.12
2017-05-31T05:44:49.146Z,13.15
2017-05-31T05:45:49.765Z,13.15
2017-05-31T05:46:50.381Z,13.13
2017-05-31T05:47:50.998Z,13.16
2017-05-31T05:48:51.668Z,13.11
2017-05-31T05:49:52.291Z,13.16
2017-05-31T05:50:52.905Z,13.18
2017-05-31T05:51:53.522Z,13.16
2017-05-31T05:52:54.141Z,13.16
2017-05-31T05:53:54.810Z,13.19
2017-05-31T05:54:55.428Z,13.08
2017-05-31T05:55:56.054Z,13.03
2017-05-31T05:56:56.667Z,13.15
2017-05-31T05:57:57.292Z,13.09
2017-05-31T05:58:57.992Z,13.19
2017-05-31T05:59:58.610Z,13.23
2017-05-31T06:00:59.227Z,13.12
2017-05-31T06:01:59.845Z,13.16
2017-05-31T06:03:00.464Z,13.28
2017-05-31T06:04:01.132Z,13.31
2017-05-31T06:05:01.750Z,13.13
2017-05-31T06:06:02.367Z,13.19
2017-05-31T06:07:02.985Z,13.20
2017-05-31T06:08:03.603Z,13.11
2017-05-31T06:09:04.221Z,13.09
2017-05-31T06:10:04.839Z,13.08
2017-05-31T06:11:05.456Z,13.08
2017-05-31T06:12:06.080Z,13.11
2017-05-31T06:13:06.696Z,13.09
2017-05-31T06:14:07.313Z,13.05
2017-05-31T06:15:07.930Z,13.03
2017-05-31T06:16:08.551Z,13.05
2017-05-31T06:17:09.204Z,13.09
2017-05-31T06:18:09.818Z,13.11
2017-05-31T06:19:10.487Z,13.16
2017-05-31T06:20:11.102Z,13.04
2017-05-31T06:21:11.720Z,13.13
2017-05-31T06:22:12.337Z,13.12
2017-05-31T06:23:12.953Z,12.98
2017-05-31T06:24:13.577Z,13.05
2017-05-31T06:25:14.194Z,13.09
2017-05-31T06:26:14.810Z,13.04
2017-05-31T06:27:15.428Z,13.01
2017-05-31T06:28:16.046Z,13.00
2017-05-31T06:29:16.663Z,13.04
2017-05-31T06:30:17.285Z,13.01
2017-05-31T06:31:17.935Z,13.00
2017-05-31T06:32:18.555Z,13.11
2017-05-31T06:33:19.209Z,13.12
2017-05-31T06:34:19.880Z,13.08
2017-05-31T06:35:20.500Z,13.11
2017-05-31T06:36:21.150Z,13.15
2017-05-31T06:37:21.768Z,13.19
2017-05-31T06:38:22.392Z,13.13
2017-05-31T06:39:23.009Z,13.28
2017-05-31T06:40:23.659Z,13.19
2017-05-31T06:41:24.275Z,13.37
2017-05-31T06:42:24.892Z,13.41
2017-05-31T06:43:25.510Z,13.53
2017-05-31T06:44:26.178Z,13.54
2017-05-31T06:45:26.796Z,13.62
2017-05-31T06:46:27.414Z,13.62
2017-05-31T06:47:28.038Z,13.56
2017-05-31T06:48:28.661Z,13.54
2017-05-31T06:49:29.275Z,13.59
2017-05-31T06:50:29.898Z,13.62
2017-05-31T06:51:30.527Z,13.59
2017-05-31T06:52:31.134Z,13.50
2017-05-31T06:53:31.751Z,13.47
2017-05-31T06:54:32.419Z,13.53
2017-05-31T06:55:33.041Z,13.47
2017-05-31T06:56:33.658Z,13.57
2017-05-31T06:57:34.310Z,13.62
2017-05-31T06:58:34.929Z,13.71
2017-05-31T06:59:35.595Z,13.78
2017-05-31T07:00:36.213Z,13.79
2017-05-31T07:01:36.836Z,13.85
2017-05-31T07:02:37.451Z,13.87
2017-05-31T07:03:38.068Z,13.81
2017-05-31T07:04:38.738Z,13.78
2017-05-31T07:05:39.354Z,13.75
2017-05-31T07:06:39.973Z,13.71
2017-05-31T07:07:40.598Z,13.75
2017-05-31T07:08:41.220Z,13.74
2017-05-31T07:09:41.835Z,13.70
2017-05-31T07:10:42.458Z,13.78
2017-05-31T07:11:43.080Z,13.77
2017-05-31T07:12:43.699Z,13.85
2017-05-31T07:13:44.350Z,13.81
2017-05-31T07:14:45.018Z,13.78
2017-05-31T07:15:45.645Z,13.79
2017-05-31T07:16:46.261Z,13.75
2017-05-31T07:17:46.880Z,13.79
2017-05-31T07:18:47.505Z,13.74
2017-05-31T07:19:48.119Z,13.79
2017-05-31T07:20:48.738Z,13.89
2017-05-31T07:21:49.358Z,13.78
2017-05-31T07:22:49.982Z,13.78
2017-05-31T07:23:50.597Z,13.77
2017-05-31T07:24:51.214Z,13.71
2017-05-31T07:25:51.839Z,13.72
2017-05-31T07:26:52.453Z,13.67
2017-05-31T07:27:53.071Z,13.72
2017-05-31T07:28:53.699Z,13.70
2017-05-31T07:29:54.345Z,13.74
2017-05-31T07:30:54.967Z,13.71
2017-05-31T07:31:55.583Z,13.77
2017-05-31T07:32:56.206Z,13.89
2017-05-31T07:33:56.822Z,13.77
2017-05-31T07:34:57.444Z,13.90
2017-05-31T07:35:58.057Z,13.93
2017-05-31T07:36:58.683Z,13.99
2017-05-31T07:37:59.297Z,13.93
2017-05-31T07:38:59.915Z,13.96
2017-05-31T07:40:00.532Z,13.96
2017-05-31T07:41:01.149Z,14.00
2017-05-31T07:42:01.770Z,14.04
2017-05-31T07:43:02.395Z,14.00
2017-05-31T07:44:03.010Z,14.05
2017-05-31T07:45:03.628Z,14.08
2017-05-31T07:46:04.245Z,14.00
2017-05-31T07:47:04.862Z,14.07
2017-05-31T07:48:05.481Z,14.07
2017-05-31T07:49:06.099Z,14.07
2017-05-31T07:50:06.716Z,14.08
2017-05-31T07:51:07.339Z,14.08
2017-05-31T07:52:07.954Z,14.04
2017-05-31T07:53:08.573Z,13.96
2017-05-31T07:54:09.192Z,14.00
2017-05-31T07:55:09.866Z,13.99
2017-05-31T07:56:10.480Z,14.04
2017-05-31T07:57:11.099Z,14.11
2017-05-31T07:58:11.718Z,14.14
2017-05-31T07:59:12.337Z,14.12
2017-05-31T08:00:13.037Z,14.25
2017-05-31T08:01:13.655Z,14.23
2017-05-31T08:02:14.272Z,14.18
2017-05-31T08:03:14.894Z,14.40
2017-05-31T08:04:15.517Z,14.47
2017-05-31T08:05:16.134Z,14.43
2017-05-31T08:06:16.751Z,14.60
2017-05-31T08:07:17.374Z,14.55
2017-05-31T08:08:18.015Z,14.45
2017-05-31T08:09:18.617Z,14.41
2017-05-31T08:10:19.282Z,14.35
2017-05-31T08:11:19.900Z,14.51
2017-05-31T08:12:20.525Z,14.55
2017-05-31T08:13:21.147Z,14.59
2017-05-31T08:14:21.761Z,14.63
2017-05-31T08:15:22.429Z,14.68
2017-05-31T08:16:23.055Z,14.77
2017-05-31T08:17:23.669Z,14.66
2017-05-31T08:18:24.292Z,14.79
2017-05-31T08:19:24.909Z,14.84
2017-05-31T08:20:25.526Z,14.92
2017-05-31T08:21:26.146Z,14.96
2017-05-31T08:22:26.775Z,15.09
2017-05-31T08:23:27.387Z,15.10
2017-05-31T08:24:28.005Z,15.03
2017-05-31T08:25:28.624Z,15.10
2017-05-31T08:26:29.244Z,15.21
2017-05-31T08:27:29.863Z,15.36
2017-05-31T08:28:30.481Z,15.58
2017-05-31T08:29:31.101Z,15.75
2017-05-31T08:30:32.026Z,15.82
2017-05-31T08:31:32.649Z,15.80
2017-05-31T08:32:33.263Z,15.77
2017-05-31T08:33:33.884Z,15.73
2017-05-31T08:34:34.504Z,15.86
2017-05-31T08:35:35.121Z,15.86
2017-05-31T08:36:35.742Z,16.04
2017-05-31T08:37:36.367Z,16.09
2017-05-31T08:38:36.983Z,16.13
2017-05-31T08:39:37.602Z,16.21
2017-05-31T08:40:38.270Z,16.13
2017-05-31T08:41:38.891Z,16.09
2017-05-31T08:42:39.509Z,16.05
2017-05-31T08:43:40.131Z,16.05
2017-05-31T08:44:40.749Z,16.08
2017-05-31T08:45:41.417Z,16.08
2017-05-31T08:46:42.042Z,16.01
2017-05-31T08:47:42.660Z,16.10
2017-05-31T08:48:43.310Z,16.15
2017-05-31T08:49:43.934Z,16.23
2017-05-31T08:50:44.600Z,16.32
2017-05-31T08:51:45.222Z,16.36
2017-05-31T08:52:45.840Z,16.38
2017-05-31T08:53:46.459Z,16.42
2017-05-31T08:54:47.077Z,16.49
2017-05-31T08:55:47.696Z,16.51
2017-05-31T08:56:48.316Z,16.51
2017-05-31T08:57:48.938Z,16.38
2017-05-31T08:58:49.555Z,16.28
2017-05-31T08:59:50.175Z,16.39
2017-05-31T09:00:50.796Z,16.35
2017-05-31T09:01:51.414Z,16.32
2017-05-31T09:02:52.035Z,16.32
2017-05-31T09:03:52.659Z,16.39
2017-05-31T09:04:53.276Z,16.41
2017-05-31T09:05:53.949Z,16.47
2017-05-31T09:06:54.567Z,16.54
2017-05-31T09:07:55.185Z,16.57
2017-05-31T09:08:55.806Z,16.66
2017-05-31T09:09:56.426Z,16.71
2017-05-31T09:10:57.095Z,16.65
2017-05-31T09:11:57.716Z,16.60
2017-05-31T09:12:58.334Z,16.60
2017-05-31T09:13:58.955Z,16.71
2017-05-31T09:14:59.578Z,16.58
2017-05-31T09:16:00.196Z,16.60
2017-05-31T09:17:00.821Z,16.69
2017-05-31T09:18:01.436Z,16.65
2017-05-31T09:19:02.057Z,16.57
2017-05-31T09:20:02.675Z,16.61
2017-05-31T09:21:03.349Z,16.66
2017-05-31T09:22:03.972Z,16.64
2017-05-31T09:23:04.595Z,16.60
2017-05-31T09:24:05.210Z,16.64
2017-05-31T09:25:05.835Z,16.69
2017-05-31T09:26:06.459Z,16.83
2017-05-31T09:27:07.076Z,16.84
2017-05-31T09:28:07.696Z,16.83
2017-05-31T09:29:08.321Z,16.96
2017-05-31T09:30:08.937Z,16.93
2017-05-31T09:31:09.558Z,16.94
2017-05-31T09:32:10.178Z,17.15
2017-05-31T09:33:10.800Z,17.27
2017-05-31T09:34:11.426Z,17.36
2017-05-31T09:35:12.042Z,17.46
2017-05-31T09:36:12.713Z,17.36
2017-05-31T09:37:13.334Z,17.36
2017-05-31T09:38:13.957Z,17.49
2017-05-31T09:39:14.575Z,17.45
2017-05-31T09:40:15.192Z,17.46
2017-05-31T09:41:15.814Z,17.54
2017-05-31T09:42:16.433Z,17.56
2017-05-31T09:43:17.055Z,17.67
2017-05-31T09:44:17.673Z,17.68
2017-05-31T09:45:18.300Z,17.83
2017-05-31T09:46:18.973Z,17.80
2017-05-31T09:47:19.596Z,17.72
2017-05-31T09:48:20.214Z,17.60
2017-05-31T09:49:20.839Z,17.42
2017-05-31T09:50:21.458Z,17.49
2017-05-31T09:51:22.078Z,17.60
2017-05-31T09:52:22.698Z,17.68
2017-05-31T09:53:23.320Z,17.89
2017-05-31T09:54:23.940Z,17.89
2017-05-31T09:55:24.561Z,17.97
2017-05-31T09:56:25.184Z,18.05
2017-05-31T09:57:25.803Z,18.08
2017-05-31T09:58:26.425Z,18.18
2017-05-31T09:59:27.046Z,18.15
2017-05-31T10:00:27.666Z,18.11
2017-05-31T10:01:28.289Z,18.13
2017-05-31T10:02:28.910Z,18.07
2017-05-31T10:03:29.537Z,18.07
2017-05-31T10:04:30.154Z,18.31
2017-05-31T10:05:30.775Z,18.34
2017-05-31T10:06:31.447Z,18.47
2017-05-31T10:07:32.068Z,18.43
2017-05-31T10:08:32.695Z,18.43
2017-05-31T10:09:33.312Z,18.43
2017-05-31T10:10:33.936Z,18.52
2017-05-31T10:11:34.556Z,18.44
2017-05-31T10:12:35.178Z,18.45
2017-05-31T10:13:35.800Z,18.49
2017-05-31T10:14:36.420Z,18.55
2017-05-31T10:15:37.046Z,18.63
2017-05-31T10:16:37.722Z,18.56
2017-05-31T10:17:38.339Z,18.62
2017-05-31T10:18:38.960Z,18.71
2017-05-31T10:19:39.583Z,18.75
2017-05-31T10:20:40.212Z,18.80
2017-05-31T10:21:40.836Z,18.93
2017-05-31T10:22:41.456Z,19.04
2017-05-31T10:23:42.076Z,19.15
2017-05-31T10:24:42.700Z,19.15
2017-05-31T10:25:43.327Z,19.15
2017-05-31T10:26:44.002Z,18.98
2017-05-31T10:27:44.620Z,18.84
2017-05-31T10:28:45.243Z,18.66
2017-05-31T10:29:45.866Z,18.63
2017-05-31T10:30:46.495Z,18.53
2017-05-31T10:31:47.112Z,18.55
2017-05-31T10:32:47.737Z,18.49
2017-05-31T10:33:48.357Z,18.50
2017-05-31T10:34:49.010Z,18.38
2017-05-31T10:35:49.633Z,18.49
2017-05-31T10:36:50.260Z,18.59
2017-05-31T10:37:50.878Z,18.53
2017-05-31T10:38:51.499Z,18.47
2017-05-31T10:39:52.121Z,18.35
2017-05-31T10:40:52.743Z,18.37
2017-05-31T10:41:53.370Z,18.47
2017-05-31T10:42:53.989Z,18.41
2017-05-31T10:43:54.647Z,18.58
2017-05-31T10:44:55.272Z,18.71
2017-05-31T10:45:55.894Z,18.92
2017-05-31T10:46:56.520Z,19.04
2017-05-31T10:47:57.145Z,19.21
2017-05-31T10:48:57.762Z,19.22
2017-05-31T10:49:58.382Z,19.16
2017-05-31T10:50:59.005Z,19.21
2017-05-31T10:51:59.633Z,19.04
2017-05-31T10:53:00.252Z,19.12
2017-05-31T10:54:00.912Z,19.04
2017-05-31T10:55:01.534Z,19.15
2017-05-31T10:56:02.154Z,19.04
2017-05-31T10:57:02.864Z,19.08
2017-05-31T10:58:03.490Z,19.07
2017-05-31T10:59:04.108Z,19.16
2017-05-31T11:00:04.730Z,19.19
2017-05-31T11:01:05.384Z,19.19
2017-05-31T11:02:06.310Z,19.31
2017-05-31T11:03:06.932Z,19.37
2017-05-31T11:04:07.586Z,19.44
2017-05-31T11:05:08.216Z,19.56
2017-05-31T11:06:08.835Z,19.56
2017-05-31T11:07:09.508Z,19.66
2017-05-31T11:08:10.129Z,19.59
2017-05-31T11:09:10.788Z,19.76
2017-05-31T11:10:11.410Z,19.85
2017-05-31T11:11:12.035Z,19.74
2017-05-31T11:12:12.964Z,19.64
2017-05-31T11:13:13.587Z,19.64
2017-05-31T11:14:14.209Z,19.56
2017-05-31T11:15:14.831Z,19.52
2017-05-31T11:16:15.453Z,19.66
2017-05-31T11:17:16.076Z,19.85
2017-05-31T11:18:16.697Z,19.94
2017-05-31T11:19:17.325Z,20.07
2017-05-31T11:20:17.952Z,20.26
2017-05-31T11:21:18.576Z,20.25
2017-05-31T11:22:19.201Z,20.31
2017-05-31T11:23:19.820Z,20.50
2017-05-31T11:24:20.444Z,20.44
2017-05-31T11:25:21.068Z,20.39
2017-05-31T11:26:21.697Z,20.34
2017-05-31T11:27:22.372Z,20.44
2017-05-31T11:28:22.999Z,20.43
2017-05-31T11:29:23.618Z,20.48
2017-05-31T11:30:24.242Z,20.55
2017-05-31T11:31:24.863Z,20.63
2017-05-31T11:32:25.535Z,20.69
2017-05-31T11:33:26.165Z,20.62
2017-05-31T11:34:26.791Z,20.66
2017-05-31T11:35:27.410Z,20.70
2017-05-31T11:36:28.033Z,20.66
2017-05-31T11:37:28.713Z,20.55
2017-05-31T11:38:29.339Z,20.55
2017-05-31T11:39:29.963Z,20.43
2017-05-31T11:40:30.589Z,20.51
2017-05-31T11:41:31.211Z,20.36
2017-05-31T11:42:31.836Z,20.14
2017-05-31T11:43:32.458Z,20.13
2017-05-31T11:44:33.111Z,20.10
2017-05-31T11:45:33.733Z,20.19
2017-05-31T11:46:34.361Z,20.31
2017-05-31T11:47:35.039Z,20.29
2017-05-31T11:48:35.664Z,20.37
2017-05-31T11:49:36.288Z,20.48
2017-05-31T11:50:36.909Z,20.55
2017-05-31T11:51:37.533Z,20.60
2017-05-31T11:52:38.357Z,20.82
2017-05-31T11:53:38.980Z,20.99
2017-05-31T11:54:39.611Z,21.03
2017-05-31T11:55:40.234Z,20.95
2017-05-31T11:56:40.859Z,20.88
2017-05-31T11:57:41.487Z,21.06
2017-05-31T11:58:42.113Z,21.12
2017-05-31T11:59:42.768Z,21.05
2017-05-31T12:00:43.391Z,21.07
2017-05-31T12:01:44.021Z,21.27
2017-05-31T12:02:44.694Z,21.21
2017-05-31T12:03:45.317Z,21.35
2017-05-31T12:04:45.939Z,21.46
2017-05-31T12:05:46.564Z,21.45
2017-05-31T12:06:47.186Z,21.37
2017-05-31T12:07:47.810Z,21.37
2017-05-31T12:08:48.433Z,21.50
2017-05-31T12:09:49.064Z,21.51
2017-05-31T12:10:49.721Z,21.48
2017-05-31T12:11:50.344Z,21.39
2017-05-31T12:12:50.968Z,21.39
2017-05-31T12:13:51.595Z,21.32
2017-05-31T12:14:52.217Z,21.24
2017-05-31T12:15:52.841Z,21.12
2017-05-31T12:16:53.470Z,21.07
2017-05-31T12:17:54.143Z,21.03
2017-05-31T12:18:54.802Z,21.21
2017-05-31T12:19:55.425Z,21.25
2017-05-31T12:20:56.050Z,21.27
2017-05-31T12:21:56.673Z,21.29
2017-05-31T12:22:57.352Z,21.27
2017-05-31T12:23:57.978Z,20.92
2017-05-31T12:24:58.606Z,20.59
2017-05-31T12:25:59.230Z,20.26
2017-05-31T12:26:59.857Z,20.16
2017-05-31T12:28:00.526Z,20.21
2017-05-31T12:29:01.151Z,20.16
2017-05-31T12:30:01.775Z,20.06
2017-05-31T12:31:02.399Z,20.10
2017-05-31T12:32:03.057Z,20.29
2017-05-31T12:33:03.733Z,20.52
2017-05-31T12:34:04.389Z,20.67
2017-05-31T12:35:05.013Z,20.69
2017-05-31T12:36:05.642Z,20.99
2017-05-31T12:37:06.274Z,21.02
2017-05-31T12:38:06.947Z,21.02
2017-05-31T12:39:07.568Z,21.07
2017-05-31T12:40:08.193Z,21.02
2017-05-31T12:41:08.820Z,21.15
2017-05-31T12:42:09.443Z,21.29
2017-05-31T12:43:10.068Z,21.21
2017-05-31T12:44:10.692Z,21.27
2017-05-31T12:45:11.325Z,21.30
2017-05-31T12:46:11.953Z,21.39
2017-05-31T12:47:12.574Z,21.46
2017-05-31T12:48:13.499Z,21.36
2017-05-31T12:49:14.130Z,21.50
2017-05-31T12:50:14.753Z,21.58
2017-05-31T12:51:15.384Z,21.57
2017-05-31T12:52:16.006Z,21.64
2017-05-31T12:53:16.630Z,21.72
2017-05-31T12:54:17.256Z,21.92
2017-05-31T12:55:17.881Z,22.08
2017-05-31T12:56:18.507Z,21.92
2017-05-31T12:57:19.136Z,21.89
2017-05-31T12:58:19.819Z,21.91
2017-05-31T12:59:20.438Z,21.76
2017-05-31T13:00:21.063Z,21.85